Time;durP1;ratioP1;P1;durP2;ratioP2;P2;SDS_P1;SDS_P2;PMS_P1;PMS_P2;Temp;Humidity;BMP_temperature;BMP_pressure;BME280_temperature;BME280_humidity;BME280_pressure;Samples;Min_cycle;Max_cycle;Signal;HPM_P1;HPM_P2
2021/03/16 01:56:54;;;;;;;1999.90;162.57;;;-0.40;99.90;;;;;;6279698;22;20753;-95
2021/03/16 02:00:29;;;;;;;;;;;;;;;;;;;;;
2021/03/16 02:33:01;;;;;;;;;;;;;;;;;;;;;
2021/03/16 02:43:13;;;;;;;1467.82;92.00;;;-0.40;99.90;;;;;;6260585;23;20381;-96
2021/03/16 02:49:18;;;;;;;1476.40;80.22;;;-0.50;99.90;;;;;;6289847;22;20456;-94
2021/03/16 04:23:47;;;;;;;991.15;55.75;;;-0.40;99.90;;;;;;6263651;22;20481;-92
2021/03/16 04:26:22;;;;;;;1089.55;57.65;;;-0.40;99.90;;;;;;6233512;23;20382;-95
2021/03/16 04:33:09;;;;;;;760.13;52.90;;;-0.40;99.90;;;;;;6300278;22;20397;-95
2021/03/16 04:45:50;;;;;;;1739.82;90.47;;;-0.40;99.90;;;;;;6297229;22;20404;-95
2021/03/16 04:48:49;;;;;;;1414.73;67.87;;;-0.40;99.90;;;;;;6298339;22;20375;-95
2021/03/16 04:52:21;;;;;;;960.50;50.78;;;-0.40;99.90;;;;;;6295355;22;20411;-95
2021/03/16 05:51:18;;;;;;;211.63;34.95;;;-0.30;99.90;;;;;;6283987;22;20401;-94
2021/03/16 05:57:56;;;;;;;879.30;56.78;;;-0.30;99.90;;;;;;6294468;22;20398;-95
2021/03/16 06:01:15;;;;;;;1705.03;89.55;;;-0.30;99.90;;;;;;6295728;22;20375;-96
2021/03/16 06:04:12;;;;;;;104.88;25.23;;;-0.30;99.90;;;;;;6293541;22;20427;-96
2021/03/16 06:07:27;;;;;;;1999.90;120.88;;;-0.20;99.90;;;;;;6138435;23;20424;-96
2021/03/16 06:10:03;;;;;;;1471.88;71.95;;;-0.30;99.90;;;;;;6191157;22;20394;-95
2021/03/16 06:12:40;;;;;;;705.13;32.72;;;-0.20;99.90;;;;;;6303939;22;20355;-96
2021/03/16 06:16:10;;;;;;;325.50;20.98;;;-0.30;99.90;;;;;;6256263;22;20494;-96
2021/03/16 06:59:30;;;;;;;111.30;13.13;;;-0.20;99.90;;;;;;6289662;22;20391;-96
2021/03/16 07:02:37;;;;;;;79.85;11.23;;;-0.20;99.90;;;;;;6289470;22;20481;-96
2021/03/16 07:05:05;;;;;;;400.55;21.77;;;-0.20;99.90;;;;;;6267247;22;20386;-96
2021/03/16 07:07:54;;;;;;;1446.00;72.95;;;-0.10;99.90;;;;;;6259525;22;20384;-96
2021/03/16 07:10:53;;;;;;;96.45;14.52;;;-0.10;99.90;;;;;;6270347;22;20399;-96
2021/03/16 07:49:32;;;;;;;24.38;12.52;;;-0.10;99.90;;;;;;6285085;22;20379;-96
2021/03/16 07:52:48;;;;;;;15.02;6.80;;;-0.10;99.90;;;;;;6229359;22;21148;31
2021/03/16 08:01:49;;;;;;;17.08;10.00;;;-0.10;99.90;;;;;;6274424;22;20396;-96
2021/03/16 08:10:37;;;;;;;13.70;8.15;;;0.10;99.90;;;;;;6346741;22;20400;-95
2021/03/16 08:24:18;;;;;;;8.48;5.22;;;0.30;99.90;;;;;;6278759;22;20390;-96
2021/03/16 09:59:55;;;;;;;10.30;3.17;;;-0.10;99.90;;;;;;6274224;22;20370;-94
2021/03/16 11:30:05;;;;;;;8.02;2.33;;;2.30;99.90;;;;;;6301426;22;20395;-95
2021/03/16 11:33:09;;;;;;;8.02;2.70;;;2.10;99.90;;;;;;6282927;22;20378;-96
2021/03/16 11:35:45;;;;;;;6.50;2.27;;;2.10;99.90;;;;;;6283860;22;20461;-95
2021/03/16 11:38:38;;;;;;;7.20;2.20;;;2.40;99.90;;;;;;6284091;22;20470;-96
2021/03/16 11:41:05;;;;;;;2.53;1.07;;;2.60;99.90;;;;;;6284414;22;20386;-95
2021/03/16 11:43:34;;;;;;;4.57;1.27;;;2.60;99.90;;;;;;6287797;22;20406;-96
2021/03/16 11:46:02;;;;;;;3.45;1.52;;;2.20;99.90;;;;;;6287502;22;20666;-95
2021/03/16 11:48:33;;;;;;;7.28;2.83;;;2.10;99.90;;;;;;6285237;22;20379;-96
2021/03/16 11:51:00;;;;;;;3.97;1.42;;;2.20;99.90;;;;;;6283440;22;20387;-95
2021/03/16 11:53:26;;;;;;;3.63;1.42;;;2.30;99.90;;;;;;6284271;22;20470;-95
2021/03/16 11:56:00;;;;;;;4.97;2.08;;;2.20;99.90;;;;;;6284018;22;20414;-96
2021/03/16 11:58:27;;;;;;;6.95;1.58;;;2.10;99.90;;;;;;6283133;22;20417;-95
2021/03/16 12:00:54;;;;;;;2.53;1.05;;;2.10;99.90;;;;;;6282671;22;20898;-96
2021/03/16 12:03:23;;;;;;;9.55;2.47;;;1.90;99.90;;;;;;6282714;22;20867;-96
2021/03/16 12:06:02;;;;;;;3.83;1.67;;;1.80;99.90;;;;;;6285932;22;20847;-96
2021/03/16 12:08:35;;;;;;;4.30;1.52;;;1.80;99.90;;;;;;6283816;22;20382;-96
2021/03/16 12:11:08;;;;;;;4.88;1.60;;;1.70;99.90;;;;;;6283069;22;20382;-96
2021/03/16 12:13:37;;;;;;;6.25;1.92;;;1.70;99.90;;;;;;6284558;22;20383;-96
2021/03/16 12:16:08;;;;;;;9.10;2.33;;;1.60;99.90;;;;;;6282766;22;20697;-96
2021/03/16 12:18:34;;;;;;;4.55;2.10;;;1.60;99.90;;;;;;6282500;22;20398;-95
2021/03/16 12:21:01;;;;;;;5.93;1.60;;;1.80;99.90;;;;;;6284186;22;20473;-96
2021/03/16 12:23:30;;;;;;;3.97;1.55;;;1.70;99.90;;;;;;6283113;22;20466;-96
2021/03/16 12:26:04;;;;;;;5.15;1.98;;;1.80;99.90;;;;;;6282637;22;20477;-96
2021/03/16 12:28:31;;;;;;;6.43;1.83;;;1.80;99.90;;;;;;6284881;22;20387;-96
2021/03/16 12:30:59;;;;;;;4.07;1.75;;;2.00;99.90;;;;;;6288639;22;20700;-95
2021/03/16 12:33:45;;;;;;;4.97;1.42;;;1.90;99.90;;;;;;6288025;22;20383;-96
2021/03/16 12:36:29;;;;;;;8.88;2.20;;;1.90;99.90;;;;;;6290702;22;20394;-96
2021/03/16 12:39:05;;;;;;;7.53;1.83;;;1.70;99.90;;;;;;6297434;22;20390;-96
2021/03/16 12:41:31;;;;;;;7.30;1.00;;;1.70;99.90;;;;;;6292192;22;20386;-96
2021/03/16 12:44:39;;;;;;;5.10;1.07;;;1.60;99.90;;;;;;6302965;22;20355;-96
2021/03/16 12:47:16;;;;;;;8.13;2.00;;;1.50;99.90;;;;;;6265105;22;20379;-96
2021/03/16 12:49:43;;;;;;;3.10;1.20;;;1.40;99.90;;;;;;6294465;22;20383;-96
2021/03/16 12:52:15;;;;;;;6.10;1.55;;;1.50;99.90;;;;;;6266930;22;20371;-96
2021/03/16 12:54:46;;;;;;;2.88;1.50;;;1.60;99.90;;;;;;6297482;22;20367;-96
2021/03/16 12:57:18;;;;;;;4.40;1.90;;;2.00;99.90;;;;;;6249846;22;20401;-96
2021/03/16 12:59:47;;;;;;;4.97;1.88;;;2.00;99.90;;;;;;6297278;22;20378;-95
2021/03/16 13:02:57;;;;;;;6.18;1.73;;;2.10;99.90;;;;;;6267121;22;20574;-96
2021/03/16 13:06:04;;;;;;;4.40;1.30;;;2.30;99.90;;;;;;6253747;22;20398;-96
2021/03/16 13:14:47;;;;;;;8.18;2.10;;;2.00;99.90;;;;;;6231758;23;20470;-96
2021/03/16 13:17:20;;;;;;;7.53;2.10;;;1.70;99.90;;;;;;6227640;23;20398;-96
2021/03/16 13:24:43;;;;;;;4.78;1.50;;;1.50;99.90;;;;;;6093532;23;20379;-96
2021/03/16 13:27:47;;;;;;;;;;;;;;;;;;;;;
2021/03/16 13:43:45;;;;;;;3.50;1.50;;;3.30;99.80;;;;;;6345940;22;20400;-96
2021/03/16 13:46:23;;;;;;;5.40;1.30;;;4.00;95.20;;;;;;6313288;22;20393;-96
2021/03/16 13:55:37;;;;;;;6.03;1.30;;;2.00;99.90;;;;;;6223844;22;20865;-96
2021/03/16 14:18:23;;;;;;;4.10;1.60;;;1.40;99.60;;;;;;6225634;22;20412;-94
2021/03/16 14:21:32;;;;;;;;;;;;;;;;;;;;;
2021/03/16 14:25:14;;;;;;;3.85;1.10;;;1.30;99.90;;;;;;6098791;23;20785;-96
2021/03/16 14:27:41;;;;;;;4.00;1.30;;;1.40;99.90;;;;;;6126514;23;20398;-92
2021/03/16 14:30:16;;;;;;;5.80;1.30;;;1.40;99.90;;;;;;6122450;23;20788;-96
2021/03/16 14:32:58;;;;;;;2.13;1.27;;;1.40;99.90;;;;;;6182328;22;20386;-93
2021/03/16 14:35:27;;;;;;;5.03;1.48;;;1.40;99.90;;;;;;6283892;22;20396;-93
2021/03/16 14:37:53;;;;;;;5.00;1.50;;;1.30;99.90;;;;;;6289030;22;20375;-94
2021/03/16 14:40:20;;;;;;;5.55;1.27;;;1.20;99.90;;;;;;6234641;22;20422;-94
2021/03/16 14:42:47;;;;;;;4.53;1.08;;;1.10;99.90;;;;;;6251724;23;20393;-93
2021/03/16 14:45:17;;;;;;;5.07;1.27;;;1.10;99.90;;;;;;6249800;23;20378;-93
2021/03/16 14:47:52;;;;;;;6.82;1.42;;;0.90;99.90;;;;;;6251798;23;20447;-95
2021/03/16 14:50:20;;;;;;;5.93;1.63;;;0.90;99.90;;;;;;6249876;23;20389;-93
2021/03/16 14:52:49;;;;;;;9.73;2.45;;;0.90;99.90;;;;;;6247583;23;20508;-95
2021/03/16 14:55:21;;;;;;;6.75;1.70;;;1.10;99.90;;;;;;6248444;23;20492;-94
2021/03/16 14:57:51;;;;;;;6.80;1.63;;;1.20;99.90;;;;;;6296658;22;20418;-95
2021/03/16 15:00:21;;;;;;;6.28;2.10;;;1.20;99.90;;;;;;6347846;22;20375;-94
2021/03/16 15:02:48;;;;;;;7.53;1.98;;;1.20;99.90;;;;;;6347040;22;20450;-95
2021/03/16 15:05:16;;;;;;;4.47;1.73;;;1.30;99.90;;;;;;6351020;22;20827;-96
2021/03/16 15:07:45;;;;;;;3.58;1.65;;;1.20;99.90;;;;;;6345219;22;20379;-94
2021/03/16 15:10:14;;;;;;;2.90;1.27;;;1.10;99.90;;;;;;6344646;22;20439;-95
2021/03/16 15:12:40;;;;;;;3.85;1.42;;;1.10;99.90;;;;;;6346462;22;20382;-94
2021/03/16 15:15:12;;;;;;;4.00;1.63;;;1.10;99.90;;;;;;6346350;22;20383;-94
2021/03/16 15:17:42;;;;;;;5.32;1.95;;;0.90;99.90;;;;;;6345750;22;20379;-95
2021/03/16 15:20:23;;;;;;;4.97;1.73;;;0.90;99.90;;;;;;6346168;22;20375;-95
2021/03/16 15:22:52;;;;;;;4.90;1.80;;;0.90;99.90;;;;;;6344730;22;20383;-95
2021/03/16 15:25:19;;;;;;;7.32;2.00;;;0.90;99.90;;;;;;6343647;22;20737;-95
2021/03/16 15:27:47;;;;;;;6.35;1.98;;;0.90;99.90;;;;;;6344930;22;20403;-94
2021/03/16 15:30:14;;;;;;;3.53;1.38;;;0.90;99.90;;;;;;6343960;22;20403;-95
2021/03/16 15:32:42;;;;;;;3.28;1.33;;;1.00;99.90;;;;;;6344447;22;20386;-94
2021/03/16 15:35:11;;;;;;;3.78;1.52;;;1.00;99.90;;;;;;6342945;22;20386;-96
2021/03/16 15:37:37;;;;;;;6.03;1.20;;;1.00;99.90;;;;;;6369344;22;20405;-95
2021/03/16 15:40:05;;;;;;;3.60;1.70;;;0.90;99.90;;;;;;6342973;22;20403;-93
2021/03/16 15:42:32;;;;;;;7.22;1.55;;;0.90;99.90;;;;;;6342696;22;20854;-95
2021/03/16 15:45:02;;;;;;;5.82;1.60;;;0.90;99.90;;;;;;6343851;22;20382;-95
2021/03/16 15:47:30;;;;;;;2.53;1.10;;;0.80;99.90;;;;;;6344713;22;20467;-95
2021/03/16 15:49:57;;;;;;;5.38;1.80;;;0.80;99.90;;;;;;6344681;22;20890;-96
2021/03/16 15:52:27;;;;;;;4.05;1.50;;;0.70;99.90;;;;;;6344530;22;20383;-94
2021/03/16 15:55:04;;;;;;;5.53;1.40;;;0.70;99.90;;;;;;6343171;22;20399;-95
2021/03/16 15:57:30;;;;;;;3.83;1.60;;;0.60;99.90;;;;;;6344779;22;20462;-96
2021/03/16 15:59:57;;;;;;;6.78;1.73;;;0.60;99.90;;;;;;6343707;22;20926;-95
2021/03/16 16:02:24;;;;;;;5.65;1.77;;;0.40;99.90;;;;;;6343842;22;20387;-95
2021/03/16 16:04:51;;;;;;;5.90;1.80;;;0.50;99.90;;;;;;6342885;22;20862;-95
2021/03/16 16:07:19;;;;;;;5.68;1.67;;;0.50;99.90;;;;;;6343004;22;20393;-94
2021/03/16 16:09:46;;;;;;;4.20;1.60;;;0.50;99.90;;;;;;6343010;22;20459;-95
2021/03/16 16:12:14;;;;;;;5.55;1.80;;;0.40;99.90;;;;;;6342904;22;20475;-94
2021/03/16 16:14:41;;;;;;;3.73;1.63;;;0.40;99.90;;;;;;6343320;22;20859;-95
2021/03/16 16:17:08;;;;;;;5.88;1.80;;;0.40;99.90;;;;;;6342740;22;20452;-95
2021/03/16 16:19:35;;;;;;;6.57;1.70;;;0.50;99.90;;;;;;6342624;22;20398;-95
2021/03/16 16:22:02;;;;;;;5.00;1.60;;;0.50;99.90;;;;;;6342181;22;20385;-95
2021/03/16 16:24:29;;;;;;;5.78;2.08;;;0.40;99.90;;;;;;6343951;22;20462;-95
2021/03/16 16:26:55;;;;;;;13.88;5.63;;;0.40;99.90;;;;;;6342657;22;20440;-95
2021/03/16 16:29:22;;;;;;;14.73;6.10;;;0.30;99.90;;;;;;6342884;22;20403;-95
2021/03/16 16:31:53;;;;;;;15.40;4.93;;;0.30;99.90;;;;;;6346556;22;20402;-93
2021/03/16 16:34:20;;;;;;;20.88;7.63;;;0.30;99.90;;;;;;6344949;22;20728;-95
2021/03/16 16:36:51;;;;;;;8.07;2.22;;;0.30;99.90;;;;;;6343893;22;20398;-95
2021/03/16 16:39:18;;;;;;;7.88;2.33;;;0.30;99.90;;;;;;6343220;22;20382;-94
2021/03/16 16:41:46;;;;;;;6.72;2.13;;;0.30;99.90;;;;;;6342260;22;20379;-95
2021/03/16 16:44:21;;;;;;;8.65;2.13;;;0.30;99.90;;;;;;6343887;22;20852;-95
2021/03/16 16:46:49;;;;;;;7.43;2.05;;;0.20;99.90;;;;;;6342595;22;20379;-95
2021/03/16 16:49:16;;;;;;;10.27;2.50;;;0.30;99.90;;;;;;6344129;22;20662;-96
2021/03/16 16:51:42;;;;;;;7.25;2.08;;;0.30;99.90;;;;;;6342768;22;20466;-96
2021/03/16 16:54:10;;;;;;;7.57;2.42;;;0.30;99.90;;;;;;6342457;22;20389;-94
2021/03/16 16:56:40;;;;;;;9.40;2.00;;;0.30;99.90;;;;;;6342489;22;20402;-96
2021/03/16 16:59:06;;;;;;;8.80;2.42;;;0.20;99.90;;;;;;6342499;22;20379;-95
2021/03/16 17:01:33;;;;;;;3.97;1.90;;;0.30;99.90;;;;;;6342640;22;20719;-95
2021/03/16 17:04:00;;;;;;;3.00;1.95;;;0.30;99.90;;;;;;6343165;22;20471;-95
2021/03/16 17:06:29;;;;;;;2.40;1.42;;;0.30;99.90;;;;;;6343644;22;20410;-95
2021/03/16 17:08:56;;;;;;;5.22;1.92;;;0.30;99.90;;;;;;6343219;22;20382;-96
2021/03/16 17:11:26;;;;;;;6.63;1.42;;;0.30;99.90;;;;;;6343379;22;20443;-95
2021/03/16 17:13:53;;;;;;;4.35;1.33;;;0.40;99.90;;;;;;6317176;22;20375;-95
2021/03/16 17:16:25;;;;;;;2.95;1.20;;;0.40;99.90;;;;;;6344649;22;20411;-94
2021/03/16 17:18:58;;;;;;;5.10;1.42;;;0.30;99.90;;;;;;6347458;22;20375;-95
2021/03/16 17:21:25;;;;;;;5.13;1.80;;;0.30;99.90;;;;;;6343842;22;20871;-96
2021/03/16 17:24:09;;;;;;;5.07;1.70;;;0.20;99.90;;;;;;6346298;22;20386;-95
2021/03/16 17:26:35;;;;;;;4.23;1.43;;;0.20;99.90;;;;;;6347422;22;20417;-96
2021/03/16 17:29:05;;;;;;;2.55;1.35;;;0.10;99.90;;;;;;6349998;22;20399;-95
2021/03/16 17:31:32;;;;;;;4.45;1.55;;;0.20;99.90;;;;;;6344758;22;20704;-95
2021/03/16 17:34:02;;;;;;;4.38;1.88;;;0.20;99.90;;;;;;6347079;22;20376;-95
2021/03/16 17:36:31;;;;;;;3.63;1.23;;;0.20;99.90;;;;;;6348920;22;20395;-95
2021/03/16 17:39:09;;;;;;;2.65;1.25;;;0.10;99.90;;;;;;6349336;22;20381;-94
2021/03/16 17:41:40;;;;;;;4.47;1.63;;;0.10;99.90;;;;;;6347047;22;20467;-94
2021/03/16 17:44:08;;;;;;;2.03;1.15;;;0.10;99.90;;;;;;6373454;22;20375;-93
2021/03/16 17:46:35;;;;;;;5.93;1.93;;;0.10;99.90;;;;;;6346259;22;20436;-94
2021/03/16 17:49:05;;;;;;;4.60;1.73;;;0.10;99.90;;;;;;6345767;22;20381;-94
2021/03/16 17:51:35;;;;;;;6.73;1.73;;;0.00;99.90;;;;;;6344987;22;20371;-95
2021/03/16 17:54:04;;;;;;;6.07;2.30;;;0.00;99.90;;;;;;6344861;22;20398;-94
2021/03/16 17:56:31;;;;;;;8.10;1.98;;;0.00;99.90;;;;;;6343968;22;20475;-93
2021/03/16 17:59:02;;;;;;;4.72;1.48;;;0.00;99.90;;;;;;6343915;22;20454;-95
2021/03/16 18:01:29;;;;;;;4.25;1.48;;;0.10;99.90;;;;;;6346411;22;20390;-95
2021/03/16 18:03:56;;;;;;;5.63;1.80;;;0.00;99.90;;;;;;6347574;22;20381;-92
2021/03/16 18:16:47;;;;;;;5.90;2.28;;;0.10;99.90;;;;;;6272620;22;20467;-96
2021/03/16 18:38:39;;;;;;;6.18;2.40;;;-0.10;99.90;;;;;;6316142;22;20389;-95
2021/03/16 18:41:11;;;;;;;8.68;2.72;;;-0.10;99.90;;;;;;6284879;22;20466;-94
2021/03/16 21:59:04;;;;;;;13.10;4.32;;;-0.70;99.90;;;;;;6316399;22;20386;-96
2021/03/16 22:01:57;;;;;;;11.93;4.47;;;-0.70;99.90;;;;;;6321994;22;20457;-95
2021/03/16 22:05:33;;;;;;;6.10;2.42;;;-0.70;99.90;;;;;;6290740;22;20400;-94
2021/03/16 22:09:07;;;;;;;14.10;4.00;;;-0.70;99.90;;;;;;6268358;22;20475;-96
2021/03/16 23:20:42;;;;;;;25.13;10.85;;;-0.80;99.90;;;;;;6299778;22;20367;-96
